KHOU/HOU METAR and TAF weather

Enter ICAO airport designator
Station Type Date Time Source
KHOU METAR 2021/09/16 20:53 UTC NOAA

KHOU 162053Z 02010KT 10SM BKN023 BKN048 28/22 A2982 RMK AO2 SLP104 T02830217 57012


Station Type Date Time Source
KHOU Decoded METAR 2021/09/16 20:53 UTC NOAA

HOUSTON HOBBY AIRPORT, TX, United States (KHOU) 29-38N 095-17W 36M
Sep 16, 2021 - 04:53 PM EDT / 2021.09.16 2053 UTC
Wind: from the NNE (020 degrees) at 12 MPH (10 KT):0
Visibility: 10 mile(s):0
Sky conditions: mostly cloudy
Temperature: 82.9 F (28.3 C)
Dew Point: 71.1 F (21.7 C)
Relative Humidity: 67%
Pressure (altimeter): 29.82 in. Hg (1009 hPa)
Pressure tendency: 0.04 inches (1.2 hPa) lower than three hours ago
ob: KHOU 162053Z 02010KT 10SM BKN023 BKN048 28/22 A2982 RMK AO2 SLP104 T02830217 57012
cycle: 21

Station Type Date Time Source
KHOU TAF 2021/09/16 21:58 UTC NOAA

TAF
AMD KHOU 162058Z 1621/1718 02009KT P6SM BKN025 BKN045
FM170000 05007KT P6SM SCT035
FM170200 09003KT P6SM FEW050
FM170900 29004KT P6SM SCT025

Example: see airport list